Time;durP1;ratioP1;P1;durP2;ratioP2;P2;SDS_P1;SDS_P2;PMS_P1;PMS_P2;Temp;Humidity;BMP_temperature;BMP_pressure;BME280_temperature;BME280_humidity;BME280_pressure;Samples;Min_cycle;Max_cycle;Signal;HPM_P1;HPM_P2
2022/01/14 00:02:08;;;;;;;34.17;19.25;;;4.30;99.90;;;;;;5020647;28;20041;-58
2022/01/14 00:04:35;;;;;;;36.58;19.63;;;3.80;99.90;;;;;;5020035;28;20417;-59
2022/01/14 00:07:01;;;;;;;45.53;21.63;;;3.80;99.90;;;;;;5029474;28;20036;-59
2022/01/14 00:09:27;;;;;;;43.75;21.23;;;3.80;99.90;;;;;;5018535;28;20048;-58
2022/01/14 00:11:57;;;;;;;40.17;22.15;;;3.50;99.90;;;;;;5019471;28;20459;-58
2022/01/14 00:14:55;;;;;;;44.08;23.30;;;;;;;;;;5024027;28;20824;-58
2022/01/14 00:17:21;;;;;;;43.28;22.02;;;3.90;99.90;;;;;;5017733;28;20041;-59
2022/01/14 00:19:46;;;;;;;53.55;26.02;;;3.70;99.90;;;;;;5015578;28;20033;-57
2022/01/14 00:22:15;;;;;;;52.47;26.38;;;3.70;99.90;;;;;;5017545;28;20144;-59
2022/01/14 00:33:10;;;;;;;60.35;28.80;;;3.90;99.90;;;;;;5024306;28;20471;-58
2022/01/14 00:35:40;;;;;;;50.45;27.00;;;4.00;99.90;;;;;;5027407;28;20053;-58
2022/01/14 00:38:07;;;;;;;63.65;28.63;;;3.90;99.90;;;;;;5020887;28;20130;-59
2022/01/14 00:40:33;;;;;;;56.17;28.98;;;3.80;99.90;;;;;;5018967;28;20310;-59
2022/01/14 00:42:59;;;;;;;52.35;28.95;;;3.70;99.90;;;;;;5022685;28;20037;-58
2022/01/14 00:45:25;;;;;;;56.40;29.85;;;3.70;99.90;;;;;;5015950;28;20124;-58
2022/01/14 00:47:51;;;;;;;59.92;28.90;;;3.80;99.90;;;;;;5026782;28;20088;-58
2022/01/14 00:50:18;;;;;;;56.63;30.02;;;3.80;99.90;;;;;;5018956;28;20425;-58
2022/01/14 00:52:44;;;;;;;55.50;28.65;;;3.70;99.90;;;;;;5024043;28;20517;-57
2022/01/14 00:55:14;;;;;;;57.60;30.10;;;3.90;99.90;;;;;;5025521;28;20029;-58
2022/01/14 01:00:22;;;;;;;53.10;28.80;;;3.80;99.90;;;;;;5023556;28;20033;-58
2022/01/14 01:02:47;;;;;;;56.42;26.75;;;3.80;99.90;;;;;;5024431;28;20128;-57
2022/01/14 01:05:14;;;;;;;54.05;27.70;;;3.80;99.90;;;;;;5019821;28;20668;-58
2022/01/14 01:07:48;;;;;;;47.65;26.13;;;4.40;99.90;;;;;;5027915;28;20063;-58
2022/01/14 01:10:13;;;;;;;51.50;27.60;;;3.90;99.90;;;;;;5025708;28;20076;-57
2022/01/14 01:15:12;;;;;;;48.10;26.67;;;3.90;99.90;;;;;;5031374;28;20024;-58
2022/01/14 01:17:38;;;;;;;47.20;25.95;;;4.00;99.90;;;;;;5015911;28;20069;-59
2022/01/14 01:20:12;;;;;;;48.30;25.83;;;3.80;99.90;;;;;;5026500;28;20037;-58
2022/01/14 01:22:38;;;;;;;44.33;25.25;;;3.80;99.90;;;;;;5028519;28;20029;-58
2022/01/14 01:25:05;;;;;;;48.42;27.27;;;3.80;99.90;;;;;;5027496;28;20035;-58
2022/01/14 01:27:36;;;;;;;52.88;26.40;;;3.90;99.90;;;;;;5030439;28;20099;-58
2022/01/14 01:30:50;;;;;;;54.13;26.45;;;4.00;99.90;;;;;;5021018;28;20025;-59
2022/01/14 01:33:01;;;;;;;49.10;27.05;;;3.70;99.90;;;;;;5027768;28;20495;-58
2022/01/14 01:35:27;;;;;;;47.08;25.33;;;3.80;99.90;;;;;;5034857;28;20021;-58
2022/01/14 01:37:53;;;;;;;46.70;24.80;;;3.70;99.90;;;;;;5025423;28;20037;-58
2022/01/14 01:40:20;;;;;;;50.33;24.42;;;3.70;99.90;;;;;;5029569;28;20033;-59
2022/01/14 01:42:46;;;;;;;42.17;24.40;;;3.60;99.90;;;;;;5030946;28;20435;-59
2022/01/14 01:45:20;;;;;;;45.08;24.50;;;3.70;99.90;;;;;;5026946;28;20056;-58
2022/01/14 01:47:49;;;;;;;;;;;3.80;99.90;;;;;;5022680;28;20033;-59
2022/01/14 01:50:18;;;;;;;48.13;26.55;;;3.80;99.90;;;;;;5024927;28;19905;-58
2022/01/14 01:52:45;;;;;;;48.78;25.55;;;3.70;99.90;;;;;;5028691;28;20014;-58
2022/01/14 01:55:10;;;;;;;44.00;23.90;;;3.60;99.90;;;;;;5032265;28;20667;-59
2022/01/14 01:57:36;;;;;;;48.42;23.83;;;3.60;99.90;;;;;;5022455;28;20087;-58
2022/01/14 02:00:06;;;;;;;42.42;24.33;;;3.60;99.90;;;;;;5025222;28;20374;-59
2022/01/14 02:02:35;;;;;;;49.88;25.52;;;3.70;99.90;;;;;;5020625;28;20030;-58
2022/01/14 02:05:01;;;;;;;49.65;26.88;;;3.70;99.90;;;;;;5027970;28;20400;-58
2022/01/14 02:07:27;;;;;;;47.08;26.23;;;3.70;99.90;;;;;;5034673;28;20033;-58
2022/01/14 02:09:52;;;;;;;50.88;26.63;;;3.80;99.90;;;;;;5029149;28;20025;-58
2022/01/14 02:12:19;;;;;;;46.53;25.48;;;3.70;99.90;;;;;;5026094;28;20048;-57
2022/01/14 02:17:53;;;;;;;47.20;25.80;;;3.90;99.90;;;;;;5024154;28;20075;-58
2022/01/14 02:23:05;;;;;;;46.15;25.55;;;3.30;99.90;;;;;;5032422;28;20511;-58
2022/01/14 02:25:31;;;;;;;42.00;24.88;;;3.30;99.90;;;;;;5039247;28;20082;-57
2022/01/14 02:27:58;;;;;;;47.25;24.23;;;3.40;99.90;;;;;;5029295;28;20025;-57
2022/01/14 02:30:25;;;;;;;42.55;23.85;;;3.70;99.90;;;;;;5029238;28;20040;-58
2022/01/14 02:32:51;;;;;;;45.92;25.30;;;3.60;99.90;;;;;;5034933;28;20022;-58
2022/01/14 02:35:17;;;;;;;49.60;25.92;;;3.30;99.90;;;;;;5026781;28;20405;-57
2022/01/14 02:37:43;;;;;;;44.30;25.30;;;3.30;99.90;;;;;;5027092;28;20092;-57
2022/01/14 02:40:09;;;;;;;46.75;27.00;;;3.50;99.90;;;;;;5034905;28;20033;-59
2022/01/14 02:42:35;;;;;;;45.30;26.67;;;3.70;99.90;;;;;;5033957;28;20036;-58
2022/01/14 02:45:07;;;;;;;54.85;26.83;;;3.70;99.90;;;;;;5027786;28;20145;-58
2022/01/14 02:47:33;;;;;;;51.65;27.55;;;3.40;99.90;;;;;;5019312;28;20098;-59
2022/01/14 02:50:00;;;;;;;47.35;26.58;;;;;;;;;;5031400;28;20512;-59
2022/01/14 02:55:17;;;;;;;48.42;28.45;;;;;;;;;;5041139;28;20143;-58
2022/01/14 02:57:44;;;;;;;48.83;26.88;;;;;;;;;;5021615;28;20064;-57
2022/01/14 03:00:10;;;;;;;54.83;27.55;;;;;;;;;;5027484;28;20029;-59
2022/01/14 03:02:36;;;;;;;52.10;28.63;;;;;;;;;;5029010;28;20099;-59
2022/01/14 03:05:03;;;;;;;45.90;25.27;;;;;;;;;;5034988;28;20037;-58
2022/01/14 03:07:29;;;;;;;50.20;27.15;;;;;;;;;;5031218;28;20037;-58
2022/01/14 03:09:56;;;;;;;46.28;25.98;;;;;;;;;;5022952;28;20056;-58
2022/01/14 03:12:22;;;;;;;45.13;25.45;;;;;;;;;;5022112;28;20036;-58
2022/01/14 03:14:48;;;;;;;46.35;24.63;;;;;;;;;;5029183;28;20025;-58
2022/01/14 03:17:14;;;;;;;45.28;24.02;;;;;;;;;;5031345;28;20040;-58
2022/01/14 03:19:40;;;;;;;41.30;23.17;;;;;;;;;;5021623;28;20490;-58
2022/01/14 03:22:31;;;;;;;38.40;21.00;;;;;;;;;;5029845;28;20037;-60
2022/01/14 03:27:19;;;;;;;35.85;20.70;;;;;;;;;;5019278;28;20041;-58
2022/01/14 03:29:45;;;;;;;40.85;21.30;;;;;;;;;;5028971;28;20504;-58
2022/01/14 03:32:11;;;;;;;35.53;21.17;;;;;;;;;;5028385;28;20025;-58
2022/01/14 03:34:37;;;;;;;34.50;20.20;;;;;;;;;;5027574;28;20045;-58
2022/01/14 03:37:03;;;;;;;32.83;20.13;;;;;;;;;;5023911;28;20033;-58
2022/01/14 03:39:30;;;;;;;32.90;18.98;;;;;;;;;;5037911;28;20029;-58
2022/01/14 03:41:56;;;;;;;38.80;22.27;;;;;;;;;;5029006;28;20369;-58
2022/01/14 03:44:21;;;;;;;34.78;20.45;;;;;;;;;;5019857;28;20030;-59
2022/01/14 03:46:48;;;;;;;38.95;22.10;;;;;;;;;;5020191;28;20041;-59
2022/01/14 03:49:14;;;;;;;37.80;21.52;;;;;;;;;;5015413;28;20039;-58
2022/01/14 03:51:41;;;;;;;34.90;21.77;;;;;;;;;;5022806;28;20026;-60
2022/01/14 03:54:07;;;;;;;41.00;20.02;;;;;;;;;;5015970;28;20124;-59
2022/01/14 03:56:34;;;;;;;39.58;20.38;;;;;;;;;;5020910;28;20025;-58
2022/01/14 03:59:01;;;;;;;35.22;20.65;;;;;;;;;;5030173;28;20025;-58
2022/01/14 04:01:27;;;;;;;34.25;18.75;;;;;;;;;;5024973;28;20064;-58
2022/01/14 04:03:53;;;;;;;30.92;19.33;;;;;;;;;;5023839;28;20053;-58
2022/01/14 04:06:19;;;;;;;38.08;19.83;;;;;;;;;;5017196;28;20029;-59
2022/01/14 04:08:46;;;;;;;37.33;19.50;;;;;;;;;;5028073;28;20109;-57
2022/01/14 04:11:13;;;;;;;38.47;19.33;;;;;;;;;;5021843;28;20049;-58
2022/01/14 04:13:47;;;;;;;31.80;17.70;;;;;;;;;;5025762;28;20513;-59
2022/01/14 04:16:14;;;;;;;33.63;16.30;;;;;;;;;;5020926;28;20142;-58
2022/01/14 04:18:40;;;;;;;28.20;15.98;;;;;;;;;;5017700;28;20026;-59
2022/01/14 04:21:06;;;;;;;27.42;15.57;;;;;;;;;;5025060;28;20033;-57
2022/01/14 04:23:32;;;;;;;30.73;17.70;;;;;;;;;;5018011;28;20103;-58
2022/01/14 04:25:58;;;;;;;34.05;17.40;;;;;;;;;;5024439;28;20591;-57
2022/01/14 04:28:25;;;;;;;30.90;18.00;;;;;;;;;;5017548;28;20049;-58
2022/01/14 04:30:54;;;;;;;30.20;18.58;;;;;;;;;;5026046;28;20018;-58
2022/01/14 04:33:24;;;;;;;33.22;19.48;;;;;;;;;;5016896;28;20026;-59
2022/01/14 04:35:51;;;;;;;30.30;17.70;;;;;;;;;;5021148;28;20021;-58
2022/01/14 04:38:16;;;;;;;28.98;17.17;;;;;;;;;;5021388;28;20472;-58
2022/01/14 04:40:42;;;;;;;32.60;17.83;;;;;;;;;;5025159;28;20083;-58
2022/01/14 04:43:08;;;;;;;33.40;19.92;;;;;;;;;;5030134;28;20029;-57
2022/01/14 04:48:00;;;;;;;29.08;17.65;;;;;;;;;;5015731;28;20175;-59
2022/01/14 04:50:26;;;;;;;30.23;18.23;;;;;;;;;;5025702;28;20040;-58
2022/01/14 04:52:53;;;;;;;32.78;19.55;;;;;;;;;;5024299;28;20378;-58
2022/01/14 04:55:20;;;;;;;35.00;20.00;;;;;;;;;;5030747;28;20021;-58
2022/01/14 04:57:46;;;;;;;32.05;19.58;;;;;;;;;;5027825;28;20052;-59
2022/01/14 05:00:14;;;;;;;32.33;20.13;;;;;;;;;;5030391;28;20128;-59
2022/01/14 05:02:40;;;;;;;32.35;19.80;;;;;;;;;;5018854;28;20030;-58
2022/01/14 05:05:07;;;;;;;33.13;18.30;;;;;;;;;;5021268;28;20057;-59
2022/01/14 05:07:33;;;;;;;29.88;18.77;;;;;;;;;;5016648;28;20025;-59
2022/01/14 05:12:28;;;;;;;30.63;19.13;;;;;;;;;;5023507;28;20543;-59
2022/01/14 05:14:54;;;;;;;30.60;18.92;;;;;;;;;;5016975;28;20036;-59
2022/01/14 05:17:20;;;;;;;28.95;17.90;;;;;;;;;;5023305;28;20415;-58
2022/01/14 05:19:46;;;;;;;32.13;17.73;;;;;;;;;;5022748;28;20022;-58
2022/01/14 05:22:13;;;;;;;26.98;16.48;;;;;;;;;;5016202;28;20040;-59
2022/01/14 05:24:39;;;;;;;30.73;17.05;;;;;;;;;;5020725;28;20017;-57
2022/01/14 05:27:05;;;;;;;27.25;17.08;;;;;;;;;;5020181;28;20041;-59
2022/01/14 05:29:31;;;;;;;29.35;17.73;;;;;;;;;;5020624;28;20025;-58
2022/01/14 05:32:03;;;;;;;36.28;18.60;;;;;;;;;;5024421;28;20405;-59
2022/01/14 05:34:29;;;;;;;32.35;18.48;;;;;;;;;;5023196;28;20021;-59
2022/01/14 05:36:55;;;;;;;29.75;18.00;;;;;;;;;;5028694;28;20476;-59
2022/01/14 05:39:23;;;;;;;34.53;18.35;;;;;;;;;;5030754;28;20044;-57
2022/01/14 05:41:49;;;;;;;34.00;19.95;;;;;;;;;;5030700;28;20018;-58
2022/01/14 05:44:15;;;;;;;37.40;20.67;;;;;;;;;;5029132;28;20551;-58
2022/01/14 05:46:41;;;;;;;32.22;19.45;;;;;;;;;;5020012;28;20095;-58
2022/01/14 05:49:07;;;;;;;31.23;19.42;;;;;;;;;;5021970;28;20026;-59
2022/01/14 05:51:33;;;;;;;32.65;20.13;;;;;;;;;;5028744;28;20111;-58
2022/01/14 05:53:59;;;;;;;36.17;19.98;;;;;;;;;;5018303;28;20037;-58
2022/01/14 05:56:25;;;;;;;31.42;19.10;;;;;;;;;;5029872;28;20689;-59
2022/01/14 05:58:51;;;;;;;32.55;19.25;;;;;;;;;;5024916;28;20026;-58
2022/01/14 06:01:17;;;;;;;34.38;20.27;;;;;;;;;;5028259;28;20084;-59
2022/01/14 06:03:43;;;;;;;37.63;19.30;;;;;;;;;;5025431;28;20085;-58
2022/01/14 06:06:09;;;;;;;34.63;19.02;;;;;;;;;;5024254;28;20492;-59
2022/01/14 06:08:35;;;;;;;32.25;19.80;;;;;;;;;;5019749;28;20471;-58
2022/01/14 06:11:01;;;;;;;32.92;19.13;;;;;;;;;;5014695;28;20026;-59
2022/01/14 06:13:27;;;;;;;32.03;19.52;;;;;;;;;;5022957;28;20063;-58
2022/01/14 06:15:53;;;;;;;34.95;19.73;;;;;;;;;;5027869;28;20552;-58
2022/01/14 06:18:19;;;;;;;39.05;21.25;;;;;;;;;;5030317;28;20618;-57
2022/01/14 06:20:46;;;;;;;35.83;20.52;;;;;;;;;;5015381;28;20025;-59
2022/01/14 06:23:12;;;;;;;36.78;21.20;;;;;;;;;;5033770;28;20040;-58
2022/01/14 06:25:38;;;;;;;32.05;19.95;;;;;;;;;;5029397;28;20048;-58
2022/01/14 06:28:04;;;;;;;33.80;20.65;;;;;;;;;;5032593;28;20440;-59
2022/01/14 06:30:30;;;;;;;35.75;21.13;;;;;;;;;;5024018;28;20053;-59
2022/01/14 06:32:56;;;;;;;38.42;20.55;;;;;;;;;;5029046;28;20060;-58
2022/01/14 06:35:23;;;;;;;40.67;21.92;;;;;;;;;;5030693;28;20112;-58
2022/01/14 06:37:49;;;;;;;35.65;21.10;;;;;;;;;;5021402;28;20682;-57
2022/01/14 06:40:15;;;;;;;37.22;22.13;;;;;;;;;;5029113;28;20105;-58
2022/01/14 06:42:41;;;;;;;38.90;22.40;;;;;;;;;;5028827;28;20075;-59
2022/01/14 06:45:09;;;;;;;34.55;19.77;;;;;;;;;;5028253;28;20036;-57
2022/01/14 06:47:35;;;;;;;36.90;20.60;;;;;;;;;;5019891;28;20057;-58
2022/01/14 06:50:01;;;;;;;35.28;20.38;;;;;;;;;;5042225;28;20389;-58
2022/01/14 06:52:27;;;;;;;36.00;19.88;;;;;;;;;;5024094;28;20021;-58
2022/01/14 06:54:53;;;;;;;38.60;22.48;;;;;;;;;;5025533;28;20610;-59
2022/01/14 06:57:21;;;;;;;43.28;22.15;;;;;;;;;;5011303;28;20088;-59
2022/01/14 06:59:47;;;;;;;35.72;22.23;;;;;;;;;;5019959;28;20429;-59
2022/01/14 07:02:13;;;;;;;35.45;22.00;;;;;;;;;;5019135;28;20080;-58
2022/01/14 07:04:39;;;;;;;34.92;20.60;;;;;;;;;;5023924;28;20466;-58
2022/01/14 07:07:05;;;;;;;40.65;22.00;;;;;;;;;;5031928;28;20037;-60
2022/01/14 07:09:34;;;;;;;35.13;21.52;;;;;;;;;;5029354;28;20539;-59
2022/01/14 07:12:01;;;;;;;44.83;21.85;;;;;;;;;;5026129;28;20013;-58
2022/01/14 07:14:29;;;;;;;44.38;20.08;;;;;;;;;;5013074;28;20053;-59
2022/01/14 07:16:55;;;;;;;35.15;21.17;;;;;;;;;;5025738;28;20437;-60
2022/01/14 07:19:22;;;;;;;37.10;20.02;;;;;;;;;;5030521;28;20025;-60
2022/01/14 07:21:48;;;;;;;39.10;20.08;;;;;;;;;;5033245;28;20019;-60
2022/01/14 07:24:14;;;;;;;35.65;21.25;;;;;;;;;;5025720;28;20033;-60
2022/01/14 07:26:41;;;;;;;37.05;21.05;;;;;;;;;;5032244;28;20088;-60
2022/01/14 07:29:07;;;;;;;37.22;22.23;;;;;;;;;;5028322;28;20393;-59
2022/01/14 07:31:33;;;;;;;37.72;21.73;;;;;;;;;;5029017;28;20052;-60
2022/01/14 07:33:59;;;;;;;40.10;21.58;;;;;;;;;;5023840;28;20032;-60
2022/01/14 07:36:26;;;;;;;37.72;23.17;;;;;;;;;;5025318;28;20026;-60
2022/01/14 07:38:51;;;;;;;48.13;24.00;;;;;;;;;;5026757;28;20112;-59
2022/01/14 07:41:18;;;;;;;41.58;24.55;;;;;;;;;;5027624;28;20109;-60
2022/01/14 07:43:47;;;;;;;40.75;25.27;;;;;;;;;;5026407;28;20108;-60
2022/01/14 07:46:13;;;;;;;47.80;27.02;;;;;;;;;;5020851;28;20030;-60
2022/01/14 07:48:39;;;;;;;53.38;29.23;;;;;;;;;;5028898;28;20029;-60
2022/01/14 07:51:05;;;;;;;50.70;31.40;;;;;;;;;;5025884;28;20767;-61
2022/01/14 07:53:31;;;;;;;56.97;30.17;;;;;;;;;;5029681;28;20083;-60
2022/01/14 07:55:57;;;;;;;46.80;28.77;;;;;;;;;;5023192;28;20033;-60
2022/01/14 07:58:23;;;;;;;45.45;27.80;;;;;;;;;;5023480;28;20027;-60
2022/01/14 08:00:50;;;;;;;44.15;27.17;;;;;;;;;;5022839;28;20033;-60
2022/01/14 08:03:16;;;;;;;44.13;26.40;;;;;;;;;;5022035;28;20021;-60
2022/01/14 08:05:42;;;;;;;44.58;26.52;;;;;;;;;;5023852;28;20068;-60
2022/01/14 08:08:08;;;;;;;47.17;25.70;;;;;;;;;;5027648;28;20068;-60
2022/01/14 08:10:35;;;;;;;44.35;26.75;;;;;;;;;;5020789;28;20061;-60
2022/01/14 08:13:01;;;;;;;46.72;25.98;;;;;;;;;;5018766;28;20211;-59
2022/01/14 08:15:27;;;;;;;44.35;27.48;;;;;;;;;;5010430;28;20807;-60
2022/01/14 08:17:54;;;;;;;45.97;28.00;;;;;;;;;;5023741;28;20071;-59
2022/01/14 08:20:20;;;;;;;77.32;30.38;;;;;;;;;;5011736;28;20113;-59
2022/01/14 08:22:47;;;;;;;49.13;30.27;;;;;;;;;;5015692;28;20629;-60
2022/01/14 08:25:13;;;;;;;54.00;28.70;;;;;;;;;;5023015;28;20034;-60
2022/01/14 08:27:39;;;;;;;55.42;31.17;;;;;;;;;;5021065;28;20033;-61
2022/01/14 08:30:06;;;;;;;57.00;32.17;;;;;;;;;;5027680;28;20100;-61
2022/01/14 08:32:32;;;;;;;70.38;37.92;;;;;;;;;;5021862;28;20021;-60
2022/01/14 08:34:58;;;;;;;67.22;38.20;;;;;;;;;;5021194;28;20053;-60
2022/01/14 08:37:24;;;;;;;72.80;39.58;;;;;;;;;;5022945;28;20104;-59
2022/01/14 08:39:50;;;;;;;75.32;39.28;;;;;;;;;;5022808;28;20129;-60
2022/01/14 08:42:17;;;;;;;70.47;37.95;;;;;;;;;;5014230;28;20102;-60
2022/01/14 08:44:43;;;;;;;60.47;34.28;;;;;;;;;;5021219;28;20025;-60
2022/01/14 08:47:10;;;;;;;57.63;33.95;;;;;;;;;;5017486;28;20079;-60
2022/01/14 08:49:43;;;;;;;56.72;32.55;;;;;;;;;;5014910;28;20036;-60
2022/01/14 08:52:09;;;;;;;;;;;;;;;;;;5020823;28;20037;-61
2022/01/14 08:54:35;;;;;;;51.00;28.42;;;;;;;;;;5014468;28;19909;-59
2022/01/14 08:57:05;;;;;;;48.20;26.75;;;;;;;;;;5024374;28;20028;-59
2022/01/14 08:59:32;;;;;;;53.75;29.85;;;;;;;;;;5025687;28;20516;-60
2022/01/14 09:01:58;;;;;;;68.78;38.45;;;;;;;;;;5013586;28;20034;-60
2022/01/14 09:04:24;;;;;;;52.08;28.10;;;;;;;;;;5016320;28;20062;-59
2022/01/14 09:06:50;;;;;;;49.80;27.30;;;;;;;;;;5015478;28;20112;-61
2022/01/14 09:09:16;;;;;;;56.50;27.27;;;;;;;;;;5033087;28;20029;-60
2022/01/14 09:11:42;;;;;;;48.90;27.67;;;;;;;;;;5027157;28;20025;-60
2022/01/14 09:14:08;;;;;;;49.28;26.30;;;;;;;;;;5031073;28;20461;-61
2022/01/14 09:16:35;;;;;;;52.05;28.50;;;;;;;;;;5015972;28;20056;-61
2022/01/14 09:19:01;;;;;;;55.13;28.05;;;;;;;;;;5024808;28;20030;-60
2022/01/14 09:21:27;;;;;;;48.10;25.20;;;;;;;;;;5037033;28;20031;-60
2022/01/14 09:24:05;;;;;;;42.63;24.20;;;;;;;;;;5021856;28;20484;-60
2022/01/14 09:26:32;;;;;;;63.95;34.35;;;;;;;;;;5028935;28;20100;-60
2022/01/14 09:28:59;;;;;;;47.75;26.52;;;;;;;;;;5025913;28;20030;-59
2022/01/14 09:31:25;;;;;;;58.92;25.95;;;;;;;;;;5018833;28;20029;-59
2022/01/14 09:33:51;;;;;;;58.15;30.52;;;;;;;;;;5018849;28;20025;-60
2022/01/14 09:36:17;;;;;;;57.05;29.23;;;;;;;;;;5020029;28;20037;-60
2022/01/14 09:38:43;;;;;;;47.53;26.00;;;;;;;;;;5020247;28;20029;-59
2022/01/14 09:41:09;;;;;;;46.10;28.63;;;;;;;;;;5017953;28;20294;-60
2022/01/14 09:43:38;;;;;;;52.97;30.67;;;;;;;;;;5025874;28;20120;-60
2022/01/14 09:46:05;;;;;;;49.33;28.45;;;;;;;;;;5040385;28;20041;-59
2022/01/14 09:48:32;;;;;;;50.08;27.35;;;;;;;;;;5033876;28;20466;-59
2022/01/14 09:50:59;;;;;;;45.03;25.42;;;;;;;;;;5032896;28;20025;-60
2022/01/14 09:53:28;;;;;;;47.85;26.50;;;;;;;;;;5027174;28;20068;-59
2022/01/14 09:55:55;;;;;;;47.72;25.73;;;;;;;;;;5034027;28;20507;-59
2022/01/14 09:58:25;;;;;;;46.53;25.73;;;;;;;;;;5018136;28;20030;-59
2022/01/14 10:00:50;;;;;;;52.33;27.88;;;;;;;;;;5027095;28;20072;-60
2022/01/14 10:03:24;;;;;;;47.83;27.20;;;;;;;;;;5027790;28;20048;-60
2022/01/14 10:05:52;;;;;;;;;;;;;;;;;;5029102;28;20047;-59
2022/01/14 10:08:22;;;;;;;51.25;25.23;;;;;;;;;;5024137;28;20009;-60
2022/01/14 10:10:50;;;;;;;46.33;25.08;;;;;;;;;;5025920;28;20133;-60
2022/01/14 10:13:18;;;;;;;46.35;24.48;;;;;;;;;;5027338;28;20031;-60
2022/01/14 10:15:45;;;;;;;47.15;25.30;;;;;;;;;;5025475;28;20508;-59
2022/01/14 10:18:13;;;;;;;47.58;25.27;;;;;;;;;;5023666;28;20474;-60
2022/01/14 10:20:39;;;;;;;53.20;27.85;;;;;;;;;;5027897;28;20033;-59
2022/01/14 10:23:05;;;;;;;48.40;25.73;;;;;;;;;;5029613;28;20108;-59
2022/01/14 10:25:31;;;;;;;46.50;24.73;;;;;;;;;;5034377;28;20439;-60
2022/01/14 10:27:57;;;;;;;62.35;25.90;;;;;;;;;;5026044;28;20033;-60
2022/01/14 10:30:27;;;;;;;61.13;25.50;;;;;;;;;;5024153;28;20033;-60
2022/01/14 10:33:05;;;;;;;49.50;25.10;;;;;;;;;;5020890;28;20265;-59
2022/01/14 10:35:35;;;;;;;56.58;27.42;;;;;;;;;;5020463;28;20036;-60
2022/01/14 10:38:03;;;;;;;51.03;24.27;;;;;;;;;;5025669;28;20152;-60
2022/01/14 10:40:31;;;;;;;54.45;25.00;;;;;;;;;;5027421;28;20567;-60
2022/01/14 10:43:01;;;;;;;55.22;25.80;;;;;;;;;;5023340;28;20034;-60
2022/01/14 10:45:28;;;;;;;56.40;25.38;;;;;;;;;;5019862;28;20388;-60
2022/01/14 10:47:55;;;;;;;69.75;34.03;;;;;;;;;;5025102;28;20329;-60
2022/01/14 10:50:29;;;;;;;57.10;27.40;;;;;;;;;;5016489;28;20024;-59
2022/01/14 10:52:55;;;;;;;58.95;28.33;;;;;;;;;;5022630;28;20586;-60
2022/01/14 10:55:28;;;;;;;62.70;29.63;;;;;;;;;;5027410;28;20022;-60
2022/01/14 10:57:54;;;;;;;67.47;29.63;;;;;;;;;;5021551;28;20021;-60
2022/01/14 11:00:21;;;;;;;61.63;29.23;;;;;;;;;;5023813;28;20045;-59
2022/01/14 11:02:52;;;;;;;60.38;28.27;;;;;;;;;;5022393;28;20017;-60
2022/01/14 11:05:20;;;;;;;75.97;30.95;;;;;;;;;;5026667;28;20025;-59
2022/01/14 11:07:46;;;;;;;68.03;29.85;;;;;;;;;;5026147;28;20033;-60
2022/01/14 11:10:14;;;;;;;76.55;31.33;;;;;;;;;;5026974;28;20112;-60
2022/01/14 11:12:43;;;;;;;74.55;31.88;;;;;;;;;;5027027;28;20602;-61
2022/01/14 11:15:10;;;;;;;69.63;31.73;;;;;;;;;;5026871;28;20414;-60
2022/01/14 11:17:37;;;;;;;73.88;32.08;;;;;;;;;;5023690;28;20071;-60
2022/01/14 11:20:04;;;;;;;77.00;33.47;;;;;;;;;;5028298;28;20029;-60
2022/01/14 11:25:15;;;;;;;66.68;32.33;;;;;;;;;;5023390;28;20158;-60
2022/01/14 11:27:42;;;;;;;70.82;31.48;;;;;;;;;;5021820;28;20049;-60
2022/01/14 11:30:15;;;;;;;76.22;33.30;;;;;;;;;;5023437;28;20025;-60
2022/01/14 11:33:03;;;;;;;81.28;34.88;;;;;;;;;;5021004;28;20075;-60
2022/01/14 11:35:29;;;;;;;71.80;30.95;;;;;;;;;;5023587;28;20014;-60
2022/01/14 11:37:55;;;;;;;69.20;32.53;;;;;;;;;;5023205;28;20025;-60
2022/01/14 11:40:21;;;;;;;75.13;31.33;;;;;;;;;;5029506;28;20764;-60
2022/01/14 11:43:02;;;;;;;71.68;32.10;;;;;;;;;;5027564;28;20040;-61
2022/01/14 11:45:58;;;;;;;71.32;30.17;;;;;;;;;;5022953;28;20484;-60
2022/01/14 11:48:38;;;;;;;79.80;33.28;;;;;;;;;;5020626;28;20405;-60
2022/01/14 11:51:04;;;;;;;77.47;33.22;;;;;;;;;;5024933;28;20029;-61
2022/01/14 11:53:36;;;;;;;76.97;32.40;;;;;;;;;;5022472;28;20029;-60
2022/01/14 11:56:02;;;;;;;79.88;32.03;;;;;;;;;;5026114;28;20049;-59
2022/01/14 11:58:28;;;;;;;67.38;30.63;;;;;;;;;;5025080;28;20505;-60
2022/01/14 12:00:54;;;;;;;76.68;32.47;;;;;;;;;;5022996;28;20028;-61
2022/01/14 12:03:25;;;;;;;75.35;32.58;;;;;;;;;;5017342;28;20493;-59
2022/01/14 12:05:53;;;;;;;83.53;34.67;;;;;;;;;;5024097;28;20036;-60
2022/01/14 12:08:20;;;;;;;88.45;33.08;;;;;;;;;;5022924;28;20048;-60
2022/01/14 12:10:50;;;;;;;76.97;32.75;;;;;;;;;;5018426;28;20100;-60
2022/01/14 12:13:28;;;;;;;83.78;35.25;;;;;;;;;;5023042;28;20044;-61
2022/01/14 12:16:00;;;;;;;91.03;34.85;;;;;;;;;;5024444;28;20480;-60
2022/01/14 12:18:44;;;;;;;84.43;33.65;;;;;;;;;;5023741;28;20142;-60
2022/01/14 12:21:10;;;;;;;80.78;34.17;;;;;;;;;;5026603;28;20029;-59
2022/01/14 12:23:36;;;;;;;76.88;32.15;;;;;;;;;;5024279;28;20032;-59
2022/01/14 12:26:15;;;;;;;77.20;32.75;;;;;;;;;;5024278;28;20424;-61
2022/01/14 12:28:42;;;;;;;77.10;33.60;;;;;;;;;;5022460;28;20097;-60
2022/01/14 12:31:09;;;;;;;72.80;31.33;;;;;;;;;;5024029;28;20022;-60
2022/01/14 12:33:45;;;;;;;75.20;33.33;;;;;;;;;;5023631;28;20022;-60
2022/01/14 12:36:12;;;;;;;73.75;31.67;;;;;;;;;;5018538;28;20032;-60
2022/01/14 12:38:40;;;;;;;74.10;31.80;;;;;;;;;;5026202;28;20112;-60
2022/01/14 12:41:13;;;;;;;66.72;30.55;;;;;;;;;;5022675;28;20147;-60
2022/01/14 12:43:46;;;;;;;63.65;29.23;;;;;;;;;;5034683;28;20096;-60
2022/01/14 12:46:33;;;;;;;68.93;30.40;;;;;;;;;;5024625;28;20041;-60
2022/01/14 12:49:01;;;;;;;63.90;30.30;;;;;;;;;;5029324;28;20039;-60
2022/01/14 12:51:29;;;;;;;62.00;30.08;;;;;;;;;;5028319;28;20116;-60
2022/01/14 12:53:58;;;;;;;59.05;29.50;;;;;;;;;;5023553;28;20473;-59
2022/01/14 12:56:26;;;;;;;63.03;30.85;;;;;;;;;;5028691;28;20063;-60
2022/01/14 12:58:52;;;;;;;60.47;28.38;;;;;;;;;;5024477;28;20595;-61
2022/01/14 13:01:18;;;;;;;62.83;28.92;;;;;;;;;;5023647;28;20033;-61
2022/01/14 13:03:45;;;;;;;60.20;28.90;;;;;;;;;;5022893;28;20037;-60
2022/01/14 13:06:11;;;;;;;57.47;29.95;;;;;;;;;;5025576;28;20331;-59
2022/01/14 13:08:37;;;;;;;62.63;29.65;;;;;;;;;;5027293;28;20076;-59
2022/01/14 13:11:04;;;;;;;57.95;29.38;;;;;;;;;;5032457;28;20400;-59
2022/01/14 13:13:30;;;;;;;62.05;30.77;;;;;;;;;;5030582;28;20041;-60
2022/01/14 13:16:06;;;;;;;65.35;30.92;;;;;;;;;;5028577;28;20033;-59
2022/01/14 13:18:43;;;;;;;65.82;30.88;;;;;;;;;;5028454;28;20411;-59
2022/01/14 13:21:09;;;;;;;62.22;28.83;;;;;;;;;;5030597;28;20029;-59
2022/01/14 13:23:35;;;;;;;64.60;31.23;;;;;;;;;;5024409;28;20039;-60
2022/01/14 13:26:01;;;;;;;69.72;31.08;;;;;;;;;;5028666;28;20029;-60
2022/01/14 13:28:28;;;;;;;70.05;31.75;;;;;;;;;;5025625;28;20473;-60
2022/01/14 13:30:54;;;;;;;65.65;33.10;;;;;;;;;;5032089;28;20061;-59
2022/01/14 13:33:21;;;;;;;68.65;31.25;;;;;;;;;;5028424;28;20100;-60
2022/01/14 13:35:47;;;;;;;71.82;33.88;;;;;;;;;;5027679;28;20112;-60
2022/01/14 13:38:23;;;;;;;68.85;33.50;;;;;;;;;;5029061;28;20030;-60
2022/01/14 13:40:54;;;;;;;70.55;32.33;;;;;;;;;;5027573;28;20022;-59
2022/01/14 13:43:23;;;;;;;65.60;31.65;;;;;;;;;;5030361;28;20021;-59
2022/01/14 13:46:03;;;;;;;63.28;31.30;;;;;;;;;;5026376;28;20038;-59
2022/01/14 13:48:29;;;;;;;70.43;31.40;;;;;;;;;;5023622;28;20124;-60
2022/01/14 13:51:04;;;;;;;72.22;34.30;;;;;;;;;;5030248;28;20496;-59
2022/01/14 13:53:37;;;;;;;75.88;33.28;;;;;;;;;;5028230;28;20021;-59
2022/01/14 13:56:03;;;;;;;;;;;;;;;;;;5034134;28;20026;-59
2022/01/14 13:58:29;;;;;;;73.53;33.47;;;;;;;;;;5029413;28;20723;-59
2022/01/14 14:00:56;;;;;;;70.90;33.85;;;;;;;;;;5025908;28;20025;-59
2022/01/14 14:03:33;;;;;;;69.03;33.78;;;;;;;;;;5027013;28;20039;-59
2022/01/14 14:06:03;;;;;;;61.95;29.20;;;;;;;;;;5022909;28;20021;-60
2022/01/14 14:08:40;;;;;;;62.80;31.15;;;;;;;;;;5020918;28;20298;-60
2022/01/14 14:16:44;;;;;;;60.95;30.40;;;;;;;;;;5025709;28;20512;-61
2022/01/14 14:19:10;;;;;;;68.38;30.92;;;;;;;;;;5025810;28;20026;-59
2022/01/14 14:21:36;;;;;;;69.18;32.60;;;;;;;;;;5030571;28;20040;-59
2022/01/14 14:24:04;;;;;;;67.10;32.15;;;;;;;;;;5028097;28;20108;-59
2022/01/14 14:26:31;;;;;;;78.70;35.55;;;;;;;;;;5031232;28;20033;-60
2022/01/14 14:29:01;;;;;;;70.95;32.92;;;;;;;;;;5027912;28;20480;-59
2022/01/14 14:31:32;;;;;;;72.03;34.42;;;;;;;;;;5022414;28;20350;-59
2022/01/14 14:33:58;;;;;;;72.03;32.85;;;;;;;;;;5028255;28;20631;-60
2022/01/14 14:36:26;;;;;;;79.30;33.17;;;;;;;;;;5024341;28;20029;-60
2022/01/14 14:38:53;;;;;;;75.57;35.47;;;;;;;;;;5027223;28;20543;-60
2022/01/14 14:41:19;;;;;;;70.50;33.70;;;;;;;;;;5025424;28;20481;-59